sensor_id;sensor_type;location;lat;lon;timestamp;pressure;altitude;pressure_sealevel;temperature;humidity
12213;BME280;6169;44.158;22.788;2023-03-25T00:00:39;100621.63;;;12.44;42.80
12213;BME280;6169;44.158;22.788;2023-03-25T00:05:42;100610.31;;;12.52;42.53
12213;BME280;6169;44.158;22.788;2023-03-25T00:10:45;100553.38;;;12.17;42.12
12213;BME280;6169;44.158;22.788;2023-03-25T00:15:47;100608.16;;;12.54;41.81
12213;BME280;6169;44.158;22.788;2023-03-25T00:20:54;100609.28;;;12.19;43.39
12213;BME280;6169;44.158;22.788;2023-03-25T00:25:57;100588.56;;;12.57;41.95
12213;BME280;6169;44.158;22.788;2023-03-25T00:31:01;100582.22;;;12.52;42.30
12213;BME280;6169;44.158;22.788;2023-03-25T00:36:06;100571.75;;;12.43;42.23
12213;BME280;6169;44.158;22.788;2023-03-25T00:41:14;100577.31;;;12.54;42.22
12213;BME280;6169;44.158;22.788;2023-03-25T00:46:17;100569.84;;;12.44;41.88
12213;BME280;6169;44.158;22.788;2023-03-25T00:51:22;100570.97;;;12.48;41.90
12213;BME280;6169;44.158;22.788;2023-03-25T00:56:25;100561.91;;;12.20;43.05
12213;BME280;6169;44.158;22.788;2023-03-25T01:01:28;100542.44;;;12.78;41.38
12213;BME280;6169;44.158;22.788;2023-03-25T01:06:34;100565.06;;;12.34;41.64
12213;BME280;6169;44.158;22.788;2023-03-25T01:11:36;100561.31;;;12.18;42.46
12213;BME280;6169;44.158;22.788;2023-03-25T01:16:39;100563.56;;;11.71;43.81
12213;BME280;6169;44.158;22.788;2023-03-25T01:21:43;100576.34;;;12.21;42.70
12213;BME280;6169;44.158;22.788;2023-03-25T01:26:45;100570.00;;;12.15;42.91
12213;BME280;6169;44.158;22.788;2023-03-25T01:31:47;100558.31;;;11.98;43.32
12213;BME280;6169;44.158;22.788;2023-03-25T01:36:51;100552.97;;;12.08;43.39
12213;BME280;6169;44.158;22.788;2023-03-25T01:41:54;100545.38;;;12.10;42.75
12213;BME280;6169;44.158;22.788;2023-03-25T01:46:59;100541.03;;;12.09;42.81
12213;BME280;6169;44.158;22.788;2023-03-25T01:52:09;100531.28;;;12.35;42.09
12213;BME280;6169;44.158;22.788;2023-03-25T01:57:14;100530.97;;;11.93;42.92
12213;BME280;6169;44.158;22.788;2023-03-25T02:02:20;100521.13;;;11.92;42.68
12213;BME280;6169;44.158;22.788;2023-03-25T02:07:26;100517.59;;;11.91;42.27
12213;BME280;6169;44.158;22.788;2023-03-25T02:12:30;100530.81;;;11.83;42.33
12213;BME280;6169;44.158;22.788;2023-03-25T02:17:42;100531.53;;;11.78;42.38
12213;BME280;6169;44.158;22.788;2023-03-25T02:23:21;100525.28;;;11.77;42.94
12213;BME280;6169;44.158;22.788;2023-03-25T02:28:33;100520.16;;;11.64;42.42
12213;BME280;6169;44.158;22.788;2023-03-25T02:34:04;100523.63;;;11.43;43.12
12213;BME280;6169;44.158;22.788;2023-03-25T02:39:17;100525.94;;;11.51;43.55
12213;BME280;6169;44.158;22.788;2023-03-25T02:44:28;100519.91;;;11.49;44.20
12213;BME280;6169;44.158;22.788;2023-03-25T02:49:34;100519.19;;;11.53;43.27
12213;BME280;6169;44.158;22.788;2023-03-25T02:54:40;100411.44;;;10.90;42.84
12213;BME280;6169;44.158;22.788;2023-03-25T02:59:45;100502.66;;;11.60;43.16
12213;BME280;6169;44.158;22.788;2023-03-25T03:04:50;100501.66;;;11.32;43.62
12213;BME280;6169;44.158;22.788;2023-03-25T03:09:59;100499.72;;;11.45;42.83
12213;BME280;6169;44.158;22.788;2023-03-25T03:15:19;100499.72;;;11.45;42.77
12213;BME280;6169;44.158;22.788;2023-03-25T03:20:31;100499.03;;;11.54;42.45
12213;BME280;6169;44.158;22.788;2023-03-25T03:25:40;100505.47;;;11.31;42.87
12213;BME280;6169;44.158;22.788;2023-03-25T03:30:46;100504.38;;;11.66;41.71
12213;BME280;6169;44.158;22.788;2023-03-25T03:35:52;100475.44;;;11.26;42.29
12213;BME280;6169;44.158;22.788;2023-03-25T03:41:01;100516.09;;;11.50;42.16
12213;BME280;6169;44.158;22.788;2023-03-25T03:46:07;100526.53;;;11.07;42.63
12213;BME280;6169;44.158;22.788;2023-03-25T03:51:17;100536.88;;;10.94;43.11
12213;BME280;6169;44.158;22.788;2023-03-25T03:56:25;100533.19;;;11.28;41.87
12213;BME280;6169;44.158;22.788;2023-03-25T04:01:34;100534.75;;;11.41;42.82
12213;BME280;6169;44.158;22.788;2023-03-25T04:06:49;100542.69;;;11.43;41.88
12213;BME280;6169;44.158;22.788;2023-03-25T04:11:59;100539.75;;;11.32;42.45
12213;BME280;6169;44.158;22.788;2023-03-25T04:17:04;100527.25;;;11.48;42.56
12213;BME280;6169;44.158;22.788;2023-03-25T04:22:07;100536.34;;;11.88;41.57
12213;BME280;6169;44.158;22.788;2023-03-25T04:27:11;100547.63;;;11.63;41.90
12213;BME280;6169;44.158;22.788;2023-03-25T04:32:13;100535.16;;;11.67;42.05
12213;BME280;6169;44.158;22.788;2023-03-25T04:37:17;100553.03;;;11.12;44.25
12213;BME280;6169;44.158;22.788;2023-03-25T04:42:20;100563.31;;;11.10;43.57
12213;BME280;6169;44.158;22.788;2023-03-25T04:47:25;100553.75;;;11.53;43.67
12213;BME280;6169;44.158;22.788;2023-03-25T04:52:28;100556.72;;;11.68;43.15
12213;BME280;6169;44.158;22.788;2023-03-25T04:57:31;100565.47;;;12.04;41.96
12213;BME280;6169;44.158;22.788;2023-03-25T05:02:33;100576.44;;;11.75;43.44
12213;BME280;6169;44.158;22.788;2023-03-25T05:07:36;100568.44;;;11.86;43.62
12213;BME280;6169;44.158;22.788;2023-03-25T05:12:39;100567.25;;;12.15;43.70
12213;BME280;6169;44.158;22.788;2023-03-25T05:17:41;100564.00;;;11.79;45.16
12213;BME280;6169;44.158;22.788;2023-03-25T05:22:44;100558.00;;;12.16;44.03
12213;BME280;6169;44.158;22.788;2023-03-25T05:27:48;100558.13;;;12.05;45.65
12213;BME280;6169;44.158;22.788;2023-03-25T05:32:50;100532.94;;;12.58;45.43
12213;BME280;6169;44.158;22.788;2023-03-25T05:37:53;100529.34;;;13.02;46.46
12213;BME280;6169;44.158;22.788;2023-03-25T05:42:56;100532.41;;;13.05;47.11
12213;BME280;6169;44.158;22.788;2023-03-25T05:47:59;100536.19;;;13.31;47.59
12213;BME280;6169;44.158;22.788;2023-03-25T05:53:01;100541.34;;;13.97;46.18
12213;BME280;6169;44.158;22.788;2023-03-25T05:58:05;100541.38;;;14.50;44.54
12213;BME280;6169;44.158;22.788;2023-03-25T06:03:07;100545.50;;;14.05;45.84
12213;BME280;6169;44.158;22.788;2023-03-25T06:08:10;100539.03;;;14.69;46.06
12213;BME280;6169;44.158;22.788;2023-03-25T06:13:14;100536.91;;;15.02;44.84
12213;BME280;6169;44.158;22.788;2023-03-25T06:18:16;100555.03;;;15.28;42.91
12213;BME280;6169;44.158;22.788;2023-03-25T06:23:18;100551.69;;;14.96;42.24
12213;BME280;6169;44.158;22.788;2023-03-25T06:28:23;100563.53;;;15.52;40.76
12213;BME280;6169;44.158;22.788;2023-03-25T06:33:25;100569.63;;;15.70;40.98
12213;BME280;6169;44.158;22.788;2023-03-25T06:38:27;100562.69;;;16.13;40.24
12213;BME280;6169;44.158;22.788;2023-03-25T06:43:31;100560.25;;;15.91;41.91
12213;BME280;6169;44.158;22.788;2023-03-25T06:48:33;100566.00;;;16.05;41.12
12213;BME280;6169;44.158;22.788;2023-03-25T06:53:36;100558.53;;;16.36;40.73
12213;BME280;6169;44.158;22.788;2023-03-25T06:58:39;100562.09;;;16.42;40.32
12213;BME280;6169;44.158;22.788;2023-03-25T07:03:41;100568.44;;;16.12;40.27
12213;BME280;6169;44.158;22.788;2023-03-25T07:08:44;100543.81;;;16.82;40.00
12213;BME280;6169;44.158;22.788;2023-03-25T07:13:47;100567.47;;;17.27;37.84
12213;BME280;6169;44.158;22.788;2023-03-25T07:18:53;100570.09;;;17.43;37.90
12213;BME280;6169;44.158;22.788;2023-03-25T07:23:56;100569.72;;;17.15;38.59
12213;BME280;6169;44.158;22.788;2023-03-25T07:28:59;100571.09;;;17.12;38.69
12213;BME280;6169;44.158;22.788;2023-03-25T07:34:03;100569.03;;;16.94;39.26
12213;BME280;6169;44.158;22.788;2023-03-25T07:39:07;100568.13;;;17.04;39.30
12213;BME280;6169;44.158;22.788;2023-03-25T07:44:11;100552.66;;;17.23;37.81
12213;BME280;6169;44.158;22.788;2023-03-25T07:49:13;100560.31;;;17.31;37.58
12213;BME280;6169;44.158;22.788;2023-03-25T07:54:16;100560.50;;;17.74;37.19
12213;BME280;6169;44.158;22.788;2023-03-25T07:59:21;100555.03;;;18.03;36.46
12213;BME280;6169;44.158;22.788;2023-03-25T08:04:24;100551.22;;;17.99;35.24
12213;BME280;6169;44.158;22.788;2023-03-25T08:09:26;100548.84;;;18.17;34.44
12213;BME280;6169;44.158;22.788;2023-03-25T08:14:29;100545.25;;;18.64;33.77
12213;BME280;6169;44.158;22.788;2023-03-25T08:19:32;100542.25;;;18.85;33.33
12213;BME280;6169;44.158;22.788;2023-03-25T08:24:34;100545.34;;;19.73;32.62
12213;BME280;6169;44.158;22.788;2023-03-25T08:29:38;100533.56;;;20.41;31.75
12213;BME280;6169;44.158;22.788;2023-03-25T08:34:40;100513.63;;;21.08;31.61
12213;BME280;6169;44.158;22.788;2023-03-25T08:39:42;100517.28;;;20.67;32.78
12213;BME280;6169;44.158;22.788;2023-03-25T08:44:46;100508.47;;;21.38;32.19
12213;BME280;6169;44.158;22.788;2023-03-25T08:49:48;100509.38;;;21.47;31.70
12213;BME280;6169;44.158;22.788;2023-03-25T08:54:50;100499.63;;;21.72;30.85
12213;BME280;6169;44.158;22.788;2023-03-25T08:59:54;100506.06;;;21.59;30.03
12213;BME280;6169;44.158;22.788;2023-03-25T09:04:56;100502.47;;;21.13;30.81
12213;BME280;6169;44.158;22.788;2023-03-25T09:09:58;100496.78;;;21.64;31.03
12213;BME280;6169;44.158;22.788;2023-03-25T09:15:02;100487.47;;;21.51;31.40
12213;BME280;6169;44.158;22.788;2023-03-25T09:20:05;100485.75;;;21.95;31.79
12213;BME280;6169;44.158;22.788;2023-03-25T09:25:09;100478.94;;;21.70;31.64
12213;BME280;6169;44.158;22.788;2023-03-25T09:30:13;100479.50;;;21.58;31.46
12213;BME280;6169;44.158;22.788;2023-03-25T09:35:16;100477.31;;;21.01;32.73
12213;BME280;6169;44.158;22.788;2023-03-25T09:40:19;100423.94;;;21.14;31.54
12213;BME280;6169;44.158;22.788;2023-03-25T09:45:31;100404.22;;;20.85;31.62
12213;BME280;6169;44.158;22.788;2023-03-25T09:50:37;100478.25;;;21.95;31.79
12213;BME280;6169;44.158;22.788;2023-03-25T09:55:42;100476.38;;;22.79;30.93
12213;BME280;6169;44.158;22.788;2023-03-25T10:00:51;100464.00;;;22.94;30.41
12213;BME280;6169;44.158;22.788;2023-03-25T10:06:14;100463.13;;;22.67;30.35
12213;BME280;6169;44.158;22.788;2023-03-25T10:11:26;100467.88;;;22.84;30.65
12213;BME280;6169;44.158;22.788;2023-03-25T10:16:44;100467.09;;;22.84;30.52
12213;BME280;6169;44.158;22.788;2023-03-25T10:21:54;100464.25;;;23.53;28.50
12213;BME280;6169;44.158;22.788;2023-03-25T10:27:01;100449.16;;;23.07;27.74
12213;BME280;6169;44.158;22.788;2023-03-25T10:32:10;100432.47;;;22.38;28.54
12213;BME280;6169;44.158;22.788;2023-03-25T10:37:20;100436.19;;;22.33;28.86
12213;BME280;6169;44.158;22.788;2023-03-25T10:42:32;100418.66;;;22.81;28.38
12213;BME280;6169;44.158;22.788;2023-03-25T10:47:37;100419.28;;;22.61;27.86
12213;BME280;6169;44.158;22.788;2023-03-25T10:52:41;100412.94;;;22.78;27.46
12213;BME280;6169;44.158;22.788;2023-03-25T10:57:44;100410.19;;;22.95;26.96
12213;BME280;6169;44.158;22.788;2023-03-25T11:02:48;100405.25;;;23.74;26.51
12213;BME280;6169;44.158;22.788;2023-03-25T11:07:53;100406.19;;;23.87;25.60
12213;BME280;6169;44.158;22.788;2023-03-25T11:12:56;100401.31;;;24.13;25.85
12213;BME280;6169;44.158;22.788;2023-03-25T11:18:11;100393.91;;;23.88;26.11
12213;BME280;6169;44.158;22.788;2023-03-25T11:23:21;100384.44;;;23.89;25.68
12213;BME280;6169;44.158;22.788;2023-03-25T11:28:34;100377.97;;;24.35;25.75
12213;BME280;6169;44.158;22.788;2023-03-25T11:33:40;100379.78;;;24.94;25.60
12213;BME280;6169;44.158;22.788;2023-03-25T11:38:46;100369.06;;;24.84;26.02
12213;BME280;6169;44.158;22.788;2023-03-25T11:43:52;100360.94;;;24.79;25.95
12213;BME280;6169;44.158;22.788;2023-03-25T11:48:56;100344.19;;;25.57;24.63
12213;BME280;6169;44.158;22.788;2023-03-25T11:53:59;100358.13;;;25.57;25.12
12213;BME280;6169;44.158;22.788;2023-03-25T11:59:03;100347.09;;;25.24;24.83
12213;BME280;6169;44.158;22.788;2023-03-25T12:04:14;100347.13;;;25.03;24.87
12213;BME280;6169;44.158;22.788;2023-03-25T12:09:18;100340.19;;;25.09;23.92
12213;BME280;6169;44.158;22.788;2023-03-25T12:14:28;100329.72;;;25.40;23.96
12213;BME280;6169;44.158;22.788;2023-03-25T12:19:44;100327.50;;;24.54;23.86
12213;BME280;6169;44.158;22.788;2023-03-25T12:25:04;100315.44;;;24.83;23.46
12213;BME280;6169;44.158;22.788;2023-03-25T12:30:21;100326.16;;;25.18;23.58
12213;BME280;6169;44.158;22.788;2023-03-25T12:35:34;100319.28;;;23.65;24.24
12213;BME280;6169;44.158;22.788;2023-03-25T12:40:49;100321.38;;;23.98;23.99
12213;BME280;6169;44.158;22.788;2023-03-25T12:46:07;100314.75;;;23.13;25.23
12213;BME280;6169;44.158;22.788;2023-03-25T12:51:23;100303.69;;;23.05;25.76
12213;BME280;6169;44.158;22.788;2023-03-25T12:56:46;100303.22;;;22.94;26.14
12213;BME280;6169;44.158;22.788;2023-03-25T13:02:00;100291.22;;;22.55;26.29
12213;BME280;6169;44.158;22.788;2023-03-25T13:07:08;100287.03;;;23.13;25.29
12213;BME280;6169;44.158;22.788;2023-03-25T13:12:16;100289.41;;;22.68;26.41
12213;BME280;6169;44.158;22.788;2023-03-25T13:17:26;100292.00;;;22.73;27.07
12213;BME280;6169;44.158;22.788;2023-03-25T13:22:33;100294.78;;;22.03;27.15
12213;BME280;6169;44.158;22.788;2023-03-25T13:27:39;100294.28;;;22.01;27.65
12213;BME280;6169;44.158;22.788;2023-03-25T13:32:45;100294.13;;;21.89;28.05
12213;BME280;6169;44.158;22.788;2023-03-25T13:37:52;100290.75;;;22.36;27.41
12213;BME280;6169;44.158;22.788;2023-03-25T13:42:59;100275.41;;;21.95;28.29
12213;BME280;6169;44.158;22.788;2023-03-25T13:48:08;100278.63;;;21.79;28.07
12213;BME280;6169;44.158;22.788;2023-03-25T13:53:17;100266.75;;;21.70;28.53
12213;BME280;6169;44.158;22.788;2023-03-25T13:58:41;100279.84;;;22.22;28.14
12213;BME280;6169;44.158;22.788;2023-03-25T14:04:13;100263.03;;;21.92;27.96
12213;BME280;6169;44.158;22.788;2023-03-25T14:14:40;100131.06;;;20.92;28.71
12213;BME280;6169;44.158;22.788;2023-03-25T14:19:48;100254.22;;;21.73;28.57
12213;BME280;6169;44.158;22.788;2023-03-25T14:24:54;100260.28;;;22.10;28.32
12213;BME280;6169;44.158;22.788;2023-03-25T14:30:00;100250.94;;;21.13;29.06
12213;BME280;6169;44.158;22.788;2023-03-25T14:40:48;100261.69;;;21.64;28.87
12213;BME280;6169;44.158;22.788;2023-03-25T14:46:03;100254.00;;;21.52;29.21
12213;BME280;6169;44.158;22.788;2023-03-25T14:51:14;100255.19;;;21.68;28.54
12213;BME280;6169;44.158;22.788;2023-03-25T14:56:22;100187.84;;;21.15;29.04
12213;BME280;6169;44.158;22.788;2023-03-25T15:01:30;100252.50;;;22.29;28.44
12213;BME280;6169;44.158;22.788;2023-03-25T15:06:34;100256.38;;;22.45;28.07
12213;BME280;6169;44.158;22.788;2023-03-25T15:11:38;100252.34;;;22.99;27.90
12213;BME280;6169;44.158;22.788;2023-03-25T15:16:58;100257.81;;;22.60;28.72
12213;BME280;6169;44.158;22.788;2023-03-25T15:27:28;100245.31;;;22.45;29.01
12213;BME280;6169;44.158;22.788;2023-03-25T15:32:49;100232.72;;;23.12;28.08
12213;BME280;6169;44.158;22.788;2023-03-25T15:38:02;100224.13;;;23.86;28.01
12213;BME280;6169;44.158;22.788;2023-03-25T15:43:33;100218.44;;;24.03;27.66
12213;BME280;6169;44.158;22.788;2023-03-25T15:49:05;100217.84;;;24.52;26.76
12213;BME280;6169;44.158;22.788;2023-03-25T15:54:30;100214.94;;;24.15;26.82
12213;BME280;6169;44.158;22.788;2023-03-25T15:59:38;100211.69;;;23.71;27.06
12213;BME280;6169;44.158;22.788;2023-03-25T16:04:46;100206.47;;;23.39;27.67
12213;BME280;6169;44.158;22.788;2023-03-25T16:09:49;100200.34;;;23.55;27.51
12213;BME280;6169;44.158;22.788;2023-03-25T16:14:52;100189.41;;;23.29;28.00
12213;BME280;6169;44.158;22.788;2023-03-25T16:19:56;100186.44;;;23.04;27.91
12213;BME280;6169;44.158;22.788;2023-03-25T16:25:01;100189.00;;;22.80;28.49
12213;BME280;6169;44.158;22.788;2023-03-25T16:30:19;100187.00;;;22.33;28.92
12213;BME280;6169;44.158;22.788;2023-03-25T16:35:25;100183.59;;;22.10;29.40
12213;BME280;6169;44.158;22.788;2023-03-25T16:40:29;100171.53;;;21.89;29.73
12213;BME280;6169;44.158;22.788;2023-03-25T16:45:32;100180.69;;;21.89;29.73
12213;BME280;6169;44.158;22.788;2023-03-25T16:50:37;100188.34;;;21.83;30.38
12213;BME280;6169;44.158;22.788;2023-03-25T16:55:45;100188.22;;;21.31;31.21
12213;BME280;6169;44.158;22.788;2023-03-25T17:00:50;100196.63;;;20.78;32.31
12213;BME280;6169;44.158;22.788;2023-03-25T17:05:59;100201.34;;;20.46;32.91
12213;BME280;6169;44.158;22.788;2023-03-25T17:11:07;100197.78;;;20.45;32.73
12213;BME280;6169;44.158;22.788;2023-03-25T17:16:10;100197.28;;;20.43;32.79
12213;BME280;6169;44.158;22.788;2023-03-25T17:21:20;100187.97;;;20.39;32.93
12213;BME280;6169;44.158;22.788;2023-03-25T17:26:31;100198.97;;;20.31;32.93
12213;BME280;6169;44.158;22.788;2023-03-25T17:31:35;100199.72;;;20.22;33.10
12213;BME280;6169;44.158;22.788;2023-03-25T17:36:40;100214.31;;;20.00;33.69
12213;BME280;6169;44.158;22.788;2023-03-25T17:41:45;100217.38;;;19.63;33.77
12213;BME280;6169;44.158;22.788;2023-03-25T17:46:49;100219.69;;;19.69;33.90
12213;BME280;6169;44.158;22.788;2023-03-25T17:51:52;100238.53;;;19.53;33.93
12213;BME280;6169;44.158;22.788;2023-03-25T17:56:54;100243.84;;;19.22;34.85
12213;BME280;6169;44.158;22.788;2023-03-25T18:01:57;100255.16;;;18.60;36.49
12213;BME280;6169;44.158;22.788;2023-03-25T18:07:02;100274.72;;;18.59;37.70
12213;BME280;6169;44.158;22.788;2023-03-25T18:12:04;100298.56;;;18.31;37.98
12213;BME280;6169;44.158;22.788;2023-03-25T18:17:09;100278.94;;;19.16;38.44
12213;BME280;6169;44.158;22.788;2023-03-25T18:22:13;100284.69;;;19.48;38.90
12213;BME280;6169;44.158;22.788;2023-03-25T18:27:16;100311.78;;;18.47;42.37
12213;BME280;6169;44.158;22.788;2023-03-25T18:32:19;100318.44;;;18.79;41.04
12213;BME280;6169;44.158;22.788;2023-03-25T18:37:23;100314.91;;;18.92;40.61
12213;BME280;6169;44.158;22.788;2023-03-25T18:42:26;100320.47;;;19.20;39.55
12213;BME280;6169;44.158;22.788;2023-03-25T18:47:28;100344.22;;;18.50;39.22
12213;BME280;6169;44.158;22.788;2023-03-25T18:52:32;100354.63;;;18.54;38.72
12213;BME280;6169;44.158;22.788;2023-03-25T18:57:34;100367.63;;;18.86;38.05
12213;BME280;6169;44.158;22.788;2023-03-25T19:02:37;100371.19;;;18.67;38.58
12213;BME280;6169;44.158;22.788;2023-03-25T19:07:41;100387.50;;;18.45;39.06
12213;BME280;6169;44.158;22.788;2023-03-25T19:12:44;100395.97;;;18.67;39.57
12213;BME280;6169;44.158;22.788;2023-03-25T19:17:48;100390.13;;;18.17;41.08
12213;BME280;6169;44.158;22.788;2023-03-25T19:22:54;100401.78;;;18.47;42.38
12213;BME280;6169;44.158;22.788;2023-03-25T19:27:58;100405.16;;;18.63;42.11
12213;BME280;6169;44.158;22.788;2023-03-25T19:33:02;100410.13;;;18.42;42.83
12213;BME280;6169;44.158;22.788;2023-03-25T19:38:08;100410.19;;;18.18;43.78
12213;BME280;6169;44.158;22.788;2023-03-25T19:43:12;100400.22;;;18.41;43.51
12213;BME280;6169;44.158;22.788;2023-03-25T19:48:16;100397.88;;;18.34;44.71
12213;BME280;6169;44.158;22.788;2023-03-25T19:53:22;100407.06;;;18.24;46.90
12213;BME280;6169;44.158;22.788;2023-03-25T19:58:26;100385.78;;;18.11;49.02
12213;BME280;6169;44.158;22.788;2023-03-25T20:03:29;100348.81;;;17.98;45.50
12213;BME280;6169;44.158;22.788;2023-03-25T20:08:34;100372.72;;;18.60;45.09
12213;BME280;6169;44.158;22.788;2023-03-25T20:13:38;100364.66;;;18.63;47.45
12213;BME280;6169;44.158;22.788;2023-03-25T20:18:41;100387.59;;;18.40;47.93
12213;BME280;6169;44.158;22.788;2023-03-25T20:23:48;100391.06;;;18.08;49.43
12213;BME280;6169;44.158;22.788;2023-03-25T20:28:51;100377.44;;;18.16;49.95
12213;BME280;6169;44.158;22.788;2023-03-25T20:33:54;100370.34;;;18.34;48.40
12213;BME280;6169;44.158;22.788;2023-03-25T20:38:58;100354.94;;;18.33;48.77
12213;BME280;6169;44.158;22.788;2023-03-25T20:44:05;100363.47;;;18.13;50.49
12213;BME280;6169;44.158;22.788;2023-03-25T20:49:07;100366.41;;;18.40;50.42
12213;BME280;6169;44.158;22.788;2023-03-25T20:54:13;100381.34;;;18.53;49.96
12213;BME280;6169;44.158;22.788;2023-03-25T20:59:17;100385.81;;;18.30;49.27
12213;BME280;6169;44.158;22.788;2023-03-25T21:04:20;100390.75;;;17.85;50.16
12213;BME280;6169;44.158;22.788;2023-03-25T21:09:26;100385.06;;;17.52;50.53
12213;BME280;6169;44.158;22.788;2023-03-25T21:14:29;100392.34;;;17.38;51.50
12213;BME280;6169;44.158;22.788;2023-03-25T21:19:31;100415.91;;;17.15;53.53
12213;BME280;6169;44.158;22.788;2023-03-25T21:24:35;100437.97;;;16.65;55.32
12213;BME280;6169;44.158;22.788;2023-03-25T21:29:37;100447.88;;;16.61;54.83
12213;BME280;6169;44.158;22.788;2023-03-25T21:34:39;100455.56;;;15.89;57.34
12213;BME280;6169;44.158;22.788;2023-03-25T21:39:43;100444.88;;;16.58;55.45
12213;BME280;6169;44.158;22.788;2023-03-25T21:44:47;100441.75;;;16.75;54.83
12213;BME280;6169;44.158;22.788;2023-03-25T21:49:49;100444.25;;;16.06;55.36
12213;BME280;6169;44.158;22.788;2023-03-25T21:54:53;100440.41;;;16.72;53.44
12213;BME280;6169;44.158;22.788;2023-03-25T21:59:58;100434.50;;;16.49;54.47
12213;BME280;6169;44.158;22.788;2023-03-25T22:05:01;100434.34;;;17.09;53.60
12213;BME280;6169;44.158;22.788;2023-03-25T22:10:06;100437.41;;;17.08;53.82
12213;BME280;6169;44.158;22.788;2023-03-25T22:15:10;100435.06;;;16.46;55.71
12213;BME280;6169;44.158;22.788;2023-03-25T22:20:12;100450.94;;;16.49;55.71
12213;BME280;6169;44.158;22.788;2023-03-25T22:25:16;100454.72;;;15.99;56.74
12213;BME280;6169;44.158;22.788;2023-03-25T22:30:18;100461.91;;;15.69;56.85
12213;BME280;6169;44.158;22.788;2023-03-25T22:35:21;100461.16;;;16.39;55.46
12213;BME280;6169;44.158;22.788;2023-03-25T22:40:25;100464.38;;;15.81;57.58
12213;BME280;6169;44.158;22.788;2023-03-25T22:45:28;100461.06;;;15.89;57.55
12213;BME280;6169;44.158;22.788;2023-03-25T22:50:30;100471.22;;;15.63;57.30
12213;BME280;6169;44.158;22.788;2023-03-25T22:55:34;100483.00;;;15.74;55.94
12213;BME280;6169;44.158;22.788;2023-03-25T23:00:37;100492.44;;;16.27;53.70
12213;BME280;6169;44.158;22.788;2023-03-25T23:05:39;100483.00;;;15.84;55.18
12213;BME280;6169;44.158;22.788;2023-03-25T23:10:43;100499.56;;;16.28;53.87
12213;BME280;6169;44.158;22.788;2023-03-25T23:15:45;100499.06;;;16.16;53.73
12213;BME280;6169;44.158;22.788;2023-03-25T23:20:48;100501.22;;;16.30;52.06
12213;BME280;6169;44.158;22.788;2023-03-25T23:26:03;100508.66;;;16.14;51.62
12213;BME280;6169;44.158;22.788;2023-03-25T23:31:08;100515.03;;;15.94;52.36
12213;BME280;6169;44.158;22.788;2023-03-25T23:36:12;100509.00;;;15.97;51.94
12213;BME280;6169;44.158;22.788;2023-03-25T23:41:17;100503.50;;;16.07;50.99
12213;BME280;6169;44.158;22.788;2023-03-25T23:46:22;100520.56;;;15.78;51.74
12213;BME280;6169;44.158;22.788;2023-03-25T23:51:25;100527.09;;;15.88;50.80
12213;BME280;6169;44.158;22.788;2023-03-25T23:56:29;100532.88;;;15.76;51.24
